createdAt,value
2017-10-29T00:01:51.848Z,91.90
2017-10-29T00:04:19.347Z,91.90
2017-10-29T00:06:46.795Z,91.80
2017-10-29T00:09:14.291Z,91.50
2017-10-29T00:11:42.512Z,90.90
2017-10-29T00:14:10.034Z,90.90
2017-10-29T00:16:38.627Z,90.80
2017-10-29T00:19:06.916Z,91.10
2017-10-29T00:21:34.348Z,91.10
2017-10-29T00:24:01.784Z,91.60
2017-10-29T00:26:29.282Z,91.90
2017-10-29T00:28:57.525Z,92.10
2017-10-29T00:31:24.991Z,92.10
2017-10-29T00:33:52.478Z,92.20
2017-10-29T00:36:21.462Z,92.70
2017-10-29T00:38:49.786Z,92.80
2017-10-29T00:41:17.238Z,92.80
2017-10-29T00:43:44.730Z,93.20
2017-10-29T00:46:12.184Z,92.80
2017-10-29T00:48:39.739Z,92.80
2017-10-29T00:51:07.216Z,92.80
2017-10-29T00:53:34.671Z,92.80
2017-10-29T00:56:02.161Z,92.70
2017-10-29T00:58:29.612Z,92.90
2017-10-29T01:00:57.095Z,92.90
2017-10-29T01:03:24.544Z,92.80
2017-10-29T01:05:52.002Z,92.70
2017-10-29T01:08:19.508Z,92.40
2017-10-29T01:10:47.761Z,91.30
2017-10-29T01:13:15.243Z,91.30
2017-10-29T01:15:42.697Z,90.70
2017-10-29T01:18:10.190Z,90.20
2017-10-29T01:20:38.400Z,88.70
2017-10-29T01:23:05.878Z,88.80
2017-10-29T01:25:33.336Z,89.90
2017-10-29T01:28:00.882Z,89.70
2017-10-29T01:30:28.367Z,89.80
2017-10-29T01:32:55.831Z,89.70
2017-10-29T01:35:23.341Z,90.20
2017-10-29T01:37:51.587Z,90.60
2017-10-29T01:42:46.498Z,90.80
2017-10-29T01:45:14.018Z,90.70
2017-10-29T01:47:41.525Z,90.90
2017-10-29T01:50:08.992Z,90.60
2017-10-29T01:52:36.446Z,90.80
2017-10-29T01:55:03.940Z,91.10
2017-10-29T01:57:31.474Z,90.90
2017-10-29T01:59:58.912Z,91.10
2017-10-29T02:02:26.360Z,91.10
2017-10-29T02:04:53.866Z,90.90
2017-10-29T02:07:21.303Z,90.40
2017-10-29T02:09:48.762Z,90.40
2017-10-29T02:12:16.245Z,90.70
2017-10-29T02:14:43.708Z,90.80
2017-10-29T02:17:11.167Z,90.40
2017-10-29T02:19:39.378Z,90.30
2017-10-29T02:22:06.894Z,90.10
2017-10-29T02:24:34.375Z,89.40
2017-10-29T02:27:01.838Z,87.80
2017-10-29T02:29:29.337Z,87.70
2017-10-29T02:31:58.333Z,85.40
2017-10-29T02:34:25.763Z,85.40
2017-10-29T02:36:53.333Z,84.20
2017-10-29T02:39:20.815Z,84.30
2017-10-29T02:41:48.305Z,84.70
2017-10-29T02:44:16.557Z,83.80
2017-10-29T02:46:44.030Z,83.10
2017-10-29T02:49:11.476Z,83.10
2017-10-29T02:51:42.010Z,83.60
2017-10-29T02:54:10.235Z,83.20
2017-10-29T02:56:37.717Z,83.10
2017-10-29T02:59:05.201Z,85.20
2017-10-29T03:01:32.725Z,87.60
2017-10-29T03:04:00.199Z,88.80
2017-10-29T03:06:27.682Z,88.10
2017-10-29T03:08:55.189Z,87.30
2017-10-29T03:11:23.419Z,83.80
2017-10-29T03:13:50.900Z,83.80
2017-10-29T03:16:18.397Z,82.60
2017-10-29T03:18:46.637Z,81.80
2017-10-29T03:21:14.122Z,81.70
2017-10-29T03:23:41.615Z,81.30
2017-10-29T03:26:09.225Z,81.40
2017-10-29T03:28:36.687Z,82.40
2017-10-29T03:31:04.171Z,80.20
2017-10-29T03:33:31.670Z,80.80
2017-10-29T03:35:59.947Z,80.40
2017-10-29T03:38:28.157Z,80.50
2017-10-29T03:40:55.624Z,80.40
2017-10-29T03:43:23.110Z,80.50
2017-10-29T03:45:50.576Z,81.00
2017-10-29T03:48:18.821Z,81.30
2017-10-29T03:50:46.286Z,81.30
2017-10-29T03:53:13.758Z,81.00
2017-10-29T03:55:41.213Z,80.20
2017-10-29T03:58:08.833Z,75.00
2017-10-29T04:00:37.076Z,71.80
2017-10-29T04:03:04.926Z,72.00
2017-10-29T04:05:32.340Z,70.00
2017-10-29T04:08:00.576Z,64.90
2017-10-29T04:10:28.069Z,64.90
2017-10-29T04:12:55.507Z,65.10
2017-10-29T04:15:22.984Z,65.90
2017-10-29T04:17:50.453Z,66.10
2017-10-29T04:20:17.939Z,66.50
2017-10-29T04:22:46.198Z,67.80
2017-10-29T04:25:13.663Z,67.50
2017-10-29T04:27:41.117Z,67.50
2017-10-29T04:30:08.554Z,67.50
2017-10-29T04:32:36.051Z,67.50
2017-10-29T04:35:03.527Z,67.50
2017-10-29T04:37:31.852Z,65.70
2017-10-29T04:40:00.096Z,65.70
2017-10-29T04:42:28.308Z,65.50
2017-10-29T04:44:55.822Z,65.50
2017-10-29T04:47:24.114Z,65.60
2017-10-29T04:49:51.570Z,65.50
2017-10-29T04:52:18.977Z,65.60
2017-10-29T04:54:46.480Z,66.40
2017-10-29T04:57:13.955Z,65.90
2017-10-29T04:59:41.435Z,65.40
2017-10-29T05:02:09.719Z,65.30
2017-10-29T05:04:37.146Z,65.20
2017-10-29T05:07:06.127Z,64.20
2017-10-29T05:09:33.581Z,64.20
2017-10-29T05:12:01.084Z,64.50
2017-10-29T05:14:28.525Z,65.00
2017-10-29T05:16:55.976Z,65.20
2017-10-29T05:19:23.470Z,66.00
2017-10-29T05:21:51.707Z,69.80
2017-10-29T05:24:19.169Z,69.60
2017-10-29T05:26:46.671Z,72.30
2017-10-29T05:29:14.152Z,71.80
2017-10-29T05:31:42.390Z,70.70
2017-10-29T05:34:09.876Z,70.70
2017-10-29T05:36:38.088Z,70.60
2017-10-29T05:39:05.547Z,70.40
2017-10-29T05:41:33.016Z,69.30
2017-10-29T05:44:00.467Z,69.20
2017-10-29T05:46:28.016Z,68.40
2017-10-29T05:48:56.260Z,68.10
2017-10-29T05:51:23.701Z,68.00
2017-10-29T05:53:51.178Z,67.50
2017-10-29T05:56:18.695Z,67.60
2017-10-29T05:58:46.198Z,67.50
2017-10-29T06:01:13.653Z,66.80
2017-10-29T06:03:41.912Z,60.20
2017-10-29T06:06:12.398Z,60.30
2017-10-29T06:08:39.833Z,60.30
2017-10-29T06:11:07.311Z,60.10
2017-10-29T06:13:34.759Z,60.10
2017-10-29T06:16:02.213Z,60.50
2017-10-29T06:18:29.680Z,59.30
2017-10-29T06:20:57.189Z,60.10
2017-10-29T06:23:25.431Z,57.80
2017-10-29T06:25:52.987Z,57.70
2017-10-29T06:28:20.433Z,58.70
2017-10-29T06:30:47.932Z,58.30
2017-10-29T06:33:15.367Z,58.20
2017-10-29T06:35:42.849Z,58.10
2017-10-29T06:38:10.344Z,57.10
2017-10-29T06:40:38.296Z,56.60
2017-10-29T06:43:06.530Z,54.90
2017-10-29T06:45:33.977Z,54.90
2017-10-29T06:48:02.207Z,54.20
2017-10-29T06:50:29.670Z,54.00
2017-10-29T06:52:57.292Z,54.00
2017-10-29T06:55:25.549Z,52.10
2017-10-29T06:57:53.074Z,52.10
2017-10-29T07:00:20.562Z,52.30
2017-10-29T07:02:48.025Z,52.70
2017-10-29T07:05:16.280Z,53.40
2017-10-29T07:07:43.759Z,53.40
2017-10-29T07:10:11.293Z,53.90
2017-10-29T07:12:39.596Z,52.00
2017-10-29T07:15:07.075Z,52.00
2017-10-29T07:17:36.074Z,50.40
2017-10-29T07:20:05.095Z,50.20
2017-10-29T07:22:33.314Z,50.40
2017-10-29T07:25:00.978Z,50.40
2017-10-29T07:27:28.445Z,50.20
2017-10-29T07:29:55.895Z,50.40
2017-10-29T07:32:23.442Z,50.20
2017-10-29T07:34:51.729Z,50.30
2017-10-29T07:37:19.216Z,50.20
2017-10-29T07:39:46.676Z,50.40
2017-10-29T07:42:14.196Z,50.40
2017-10-29T07:44:42.479Z,51.10
2017-10-29T07:47:10.939Z,51.80
2017-10-29T07:49:39.915Z,49.90
2017-10-29T07:52:07.402Z,49.90
2017-10-29T07:54:34.919Z,50.70
2017-10-29T07:57:02.404Z,50.60
2017-10-29T07:59:29.915Z,50.10
2017-10-29T08:01:58.150Z,50.60
2017-10-29T08:04:25.610Z,49.80
2017-10-29T08:06:53.139Z,49.20
2017-10-29T08:09:20.561Z,49.60
2017-10-29T08:11:48.097Z,49.20
2017-10-29T08:14:15.520Z,49.30
2017-10-29T08:16:42.978Z,48.70
2017-10-29T08:19:10.460Z,49.40
2017-10-29T08:21:37.955Z,49.50
2017-10-29T08:24:05.428Z,49.10
2017-10-29T08:26:32.925Z,49.20
2017-10-29T08:29:01.187Z,49.10
2017-10-29T08:31:29.418Z,49.90
2017-10-29T08:33:56.893Z,49.90
2017-10-29T08:36:24.492Z,49.00
2017-10-29T08:38:52.762Z,48.60
2017-10-29T08:41:20.382Z,49.20
2017-10-29T08:43:47.870Z,49.30
2017-10-29T08:46:15.364Z,49.40
2017-10-29T08:48:42.810Z,48.40
2017-10-29T08:51:10.343Z,48.00
2017-10-29T08:53:37.834Z,48.00
2017-10-29T08:56:06.817Z,47.80
2017-10-29T08:58:34.354Z,47.70
2017-10-29T09:01:01.857Z,48.30
2017-10-29T09:03:30.099Z,48.60
2017-10-29T09:05:57.579Z,48.60
2017-10-29T09:08:25.059Z,47.60
2017-10-29T09:10:52.639Z,47.60
2017-10-29T09:13:20.135Z,47.60
2017-10-29T09:15:48.360Z,47.90
2017-10-29T09:18:15.824Z,47.80
2017-10-29T09:20:43.347Z,47.40
2017-10-29T09:23:11.588Z,47.10
2017-10-29T09:25:39.050Z,47.00
2017-10-29T09:28:06.567Z,47.10
2017-10-29T09:30:34.041Z,46.90
2017-10-29T09:33:01.541Z,46.60
2017-10-29T09:35:28.993Z,46.90
2017-10-29T09:37:56.672Z,47.00
2017-10-29T09:40:24.900Z,47.30
2017-10-29T09:42:52.377Z,47.30
2017-10-29T09:45:19.880Z,47.60
2017-10-29T09:47:47.579Z,47.30
2017-10-29T09:50:15.072Z,47.10
2017-10-29T09:52:42.531Z,46.50
2017-10-29T09:55:09.984Z,46.50
2017-10-29T09:57:37.527Z,46.00
2017-10-29T10:00:05.745Z,45.40
2017-10-29T10:02:33.243Z,45.30
2017-10-29T10:05:01.501Z,44.30
2017-10-29T10:07:29.022Z,43.60
2017-10-29T10:09:56.529Z,43.80
2017-10-29T10:12:23.992Z,44.50
2017-10-29T10:14:51.511Z,44.70
2017-10-29T10:17:18.988Z,44.50
2017-10-29T10:19:46.473Z,45.30
2017-10-29T10:22:13.959Z,45.80
2017-10-29T10:24:41.417Z,45.50
2017-10-29T10:27:08.907Z,45.80
2017-10-29T10:29:36.372Z,45.00
2017-10-29T10:32:04.626Z,46.20
2017-10-29T10:34:32.947Z,46.50
2017-10-29T10:37:00.428Z,46.50
2017-10-29T10:39:27.925Z,47.20
2017-10-29T10:41:55.419Z,47.40
2017-10-29T10:44:23.701Z,47.20
2017-10-29T10:46:51.938Z,45.80
2017-10-29T10:49:19.436Z,45.80
2017-10-29T10:51:47.670Z,44.20
2017-10-29T10:54:15.146Z,44.10
2017-10-29T10:56:42.630Z,43.70
2017-10-29T10:59:10.108Z,42.50
2017-10-29T11:01:38.405Z,43.30
2017-10-29T11:04:07.373Z,43.00
2017-10-29T11:06:35.596Z,43.20
2017-10-29T11:09:03.049Z,44.00
2017-10-29T11:11:30.498Z,43.60
2017-10-29T11:13:58.181Z,43.20
2017-10-29T11:16:25.652Z,41.70
2017-10-29T11:18:53.343Z,42.20
2017-10-29T11:21:21.503Z,41.90
2017-10-29T11:23:48.988Z,41.90
2017-10-29T11:26:16.457Z,42.20
2017-10-29T11:28:45.466Z,41.50
2017-10-29T11:31:12.924Z,41.50
2017-10-29T11:33:41.201Z,42.40
2017-10-29T11:36:08.664Z,42.30
2017-10-29T11:38:36.188Z,42.90
2017-10-29T11:41:03.678Z,44.10
2017-10-29T11:43:31.182Z,47.50
2017-10-29T11:45:59.440Z,55.40
2017-10-29T11:48:26.923Z,55.40
2017-10-29T11:50:55.137Z,56.60
2017-10-29T11:53:22.666Z,56.60
2017-10-29T11:55:51.071Z,55.90
2017-10-29T11:58:18.516Z,55.70
2017-10-29T12:00:45.978Z,56.60
2017-10-29T12:03:14.244Z,55.40
2017-10-29T12:05:41.697Z,55.40
2017-10-29T12:08:09.113Z,53.40
2017-10-29T12:10:36.715Z,53.70
2017-10-29T12:13:04.169Z,53.50
2017-10-29T12:15:31.644Z,52.20
2017-10-29T12:17:59.119Z,51.20
2017-10-29T12:20:26.741Z,49.90
2017-10-29T12:22:54.193Z,49.60
2017-10-29T12:25:21.678Z,50.30
2017-10-29T12:27:49.150Z,49.30
2017-10-29T12:30:16.719Z,48.60
2017-10-29T12:32:44.215Z,47.70
2017-10-29T12:35:12.478Z,48.20
2017-10-29T12:37:39.959Z,48.10
2017-10-29T12:40:08.266Z,47.80
2017-10-29T12:42:35.666Z,47.80
2017-10-29T12:45:03.162Z,47.50
2017-10-29T12:47:31.541Z,47.60
2017-10-29T12:49:59.009Z,47.60
2017-10-29T12:52:27.233Z,46.10
2017-10-29T12:54:54.739Z,46.00
2017-10-29T12:57:22.223Z,42.00
2017-10-29T12:59:49.680Z,42.40
2017-10-29T13:02:17.922Z,41.70
2017-10-29T13:04:45.388Z,42.30
2017-10-29T13:07:12.890Z,43.00
2017-10-29T13:09:40.360Z,43.20
2017-10-29T13:12:07.856Z,43.20
2017-10-29T13:14:35.364Z,42.80
2017-10-29T13:17:03.608Z,43.80
2017-10-29T13:19:31.090Z,43.70
2017-10-29T13:21:58.597Z,43.50
2017-10-29T13:24:26.191Z,43.80
2017-10-29T13:26:53.612Z,44.30
2017-10-29T13:29:21.142Z,44.50
2017-10-29T13:31:48.586Z,44.80
2017-10-29T13:34:16.039Z,44.90
2017-10-29T13:36:43.541Z,45.10
2017-10-29T13:39:11.838Z,45.10
2017-10-29T13:41:40.072Z,44.10
2017-10-29T13:44:07.534Z,44.10
2017-10-29T13:46:35.092Z,44.50
2017-10-29T13:49:02.612Z,44.50
2017-10-29T13:51:30.108Z,44.40
2017-10-29T13:53:57.585Z,44.20
2017-10-29T13:56:25.112Z,45.00
2017-10-29T13:58:52.571Z,45.00
2017-10-29T14:01:20.040Z,44.30
2017-10-29T14:03:47.530Z,45.10
2017-10-29T14:06:15.033Z,44.50
2017-10-29T14:08:42.489Z,44.40
2017-10-29T14:11:10.786Z,45.00
2017-10-29T14:13:38.249Z,44.90
2017-10-29T14:16:06.582Z,45.00
2017-10-29T14:18:34.040Z,44.90
2017-10-29T14:21:01.692Z,44.70
2017-10-29T14:23:29.211Z,45.70
2017-10-29T14:25:56.715Z,46.00
2017-10-29T14:28:24.579Z,47.00
2017-10-29T14:30:51.998Z,46.20
2017-10-29T14:33:19.445Z,47.10
2017-10-29T14:35:46.963Z,47.20
2017-10-29T14:38:15.353Z,47.20
2017-10-29T14:40:42.824Z,47.20
2017-10-29T14:43:10.326Z,45.20
2017-10-29T14:45:37.796Z,45.90
2017-10-29T14:48:06.762Z,45.40
2017-10-29T14:50:34.237Z,45.40
2017-10-29T14:53:01.711Z,45.10
2017-10-29T14:55:29.188Z,45.20
2017-10-29T14:57:56.661Z,45.60
2017-10-29T15:00:24.892Z,46.60
2017-10-29T15:02:52.432Z,46.60
2017-10-29T15:05:20.656Z,46.80
2017-10-29T15:07:48.129Z,46.70
2017-10-29T15:10:15.626Z,46.70
2017-10-29T15:12:43.122Z,47.30
2017-10-29T15:15:10.692Z,47.50
2017-10-29T15:17:38.168Z,47.30
2017-10-29T15:20:05.655Z,48.30
2017-10-29T15:22:33.903Z,48.60
2017-10-29T15:25:01.388Z,48.50
2017-10-29T15:27:28.865Z,48.20
2017-10-29T15:29:57.180Z,48.70
2017-10-29T15:32:24.671Z,48.60
2017-10-29T15:34:52.140Z,48.10
2017-10-29T15:37:19.616Z,47.90
2017-10-29T15:39:47.106Z,47.90
2017-10-29T15:42:15.418Z,48.10
2017-10-29T15:44:43.642Z,48.50
2017-10-29T15:47:11.890Z,48.40
2017-10-29T15:49:39.428Z,48.40
2017-10-29T15:52:07.689Z,48.50
2017-10-29T15:54:35.932Z,48.80
2017-10-29T15:57:03.569Z,48.80
2017-10-29T15:59:31.085Z,48.90
2017-10-29T16:01:58.548Z,48.90
2017-10-29T16:04:26.059Z,49.00
2017-10-29T16:06:53.583Z,49.10
2017-10-29T16:09:21.052Z,49.30
2017-10-29T16:11:48.582Z,49.50
2017-10-29T16:14:16.050Z,49.00
2017-10-29T16:16:44.304Z,49.30
2017-10-29T16:19:11.831Z,49.50
2017-10-29T16:21:39.222Z,49.30
2017-10-29T16:24:06.713Z,49.40
2017-10-29T16:26:34.219Z,49.70
2017-10-29T16:29:01.657Z,49.70
2017-10-29T16:31:29.884Z,50.30
2017-10-29T16:33:57.528Z,50.50
2017-10-29T16:36:25.778Z,51.10
2017-10-29T16:38:53.276Z,52.00
2017-10-29T16:41:20.760Z,51.50
2017-10-29T16:43:48.289Z,51.10
2017-10-29T16:46:16.500Z,52.80
2017-10-29T16:48:43.947Z,52.70
2017-10-29T16:51:11.442Z,53.20
2017-10-29T16:53:39.181Z,53.10
2017-10-29T16:56:06.630Z,51.80
2017-10-29T16:58:34.889Z,53.50
2017-10-29T17:01:02.429Z,53.50
2017-10-29T17:03:29.922Z,53.60
2017-10-29T17:05:57.348Z,53.40
2017-10-29T17:08:24.837Z,53.80
2017-10-29T17:10:52.379Z,54.20
2017-10-29T17:13:19.860Z,54.10
2017-10-29T17:15:47.445Z,53.70
2017-10-29T17:18:15.680Z,53.70
2017-10-29T17:20:43.115Z,53.70
2017-10-29T17:23:10.783Z,54.00
2017-10-29T17:25:38.302Z,54.20
2017-10-29T17:28:05.750Z,54.80
2017-10-29T17:30:34.780Z,54.70
2017-10-29T17:33:03.008Z,54.70
2017-10-29T17:35:30.478Z,54.70
2017-10-29T17:37:57.991Z,54.10
2017-10-29T17:40:25.626Z,54.20
2017-10-29T17:42:53.783Z,54.70
2017-10-29T17:45:21.307Z,54.60
2017-10-29T17:47:48.778Z,55.20
2017-10-29T17:50:16.426Z,54.60
2017-10-29T17:52:43.880Z,54.50
2017-10-29T17:55:12.132Z,55.20
2017-10-29T17:57:39.633Z,55.30
2017-10-29T18:00:07.140Z,55.20
2017-10-29T18:02:34.610Z,55.70
2017-10-29T18:05:02.119Z,55.50
2017-10-29T18:07:30.350Z,55.60
2017-10-29T18:09:57.859Z,55.60
2017-10-29T18:12:25.288Z,55.40
2017-10-29T18:14:52.753Z,55.10
2017-10-29T18:17:20.292Z,55.50
2017-10-29T18:19:47.795Z,55.40
2017-10-29T18:22:15.266Z,56.30
2017-10-29T18:24:43.507Z,55.80
2017-10-29T18:27:10.964Z,55.70
2017-10-29T18:29:38.475Z,56.30
2017-10-29T18:32:06.711Z,56.40
2017-10-29T18:34:34.239Z,56.30
2017-10-29T18:37:01.713Z,56.20
2017-10-29T18:39:29.197Z,56.10
2017-10-29T18:41:56.669Z,56.20
2017-10-29T18:44:24.139Z,56.20
2017-10-29T18:46:51.644Z,56.30
2017-10-29T18:49:19.167Z,56.20
2017-10-29T18:51:46.609Z,56.30
2017-10-29T18:54:14.055Z,56.70
2017-10-29T18:56:41.538Z,56.20
2017-10-29T18:59:09.022Z,56.10
2017-10-29T19:01:38.019Z,56.30
2017-10-29T19:04:05.466Z,56.20
2017-10-29T19:06:32.984Z,56.70
2017-10-29T19:09:01.229Z,57.70
2017-10-29T19:11:28.709Z,57.00
2017-10-29T19:13:56.967Z,57.90
2017-10-29T19:16:24.459Z,57.70
2017-10-29T19:18:53.407Z,57.90
2017-10-29T19:21:20.902Z,57.90
2017-10-29T19:23:48.412Z,57.90
2017-10-29T19:26:15.863Z,57.60
2017-10-29T19:28:43.325Z,58.20
2017-10-29T19:31:10.859Z,58.30
2017-10-29T19:33:38.273Z,58.20
2017-10-29T19:36:05.742Z,58.20
2017-10-29T19:38:33.227Z,58.30
2017-10-29T19:41:00.711Z,58.60
2017-10-29T19:43:28.926Z,58.50
2017-10-29T19:45:56.453Z,58.50
2017-10-29T19:48:23.923Z,58.10
2017-10-29T19:50:52.132Z,58.80
2017-10-29T19:53:19.653Z,58.80
2017-10-29T19:55:47.098Z,59.00
2017-10-29T19:58:14.591Z,59.00
2017-10-29T20:00:42.020Z,58.80
2017-10-29T20:03:09.526Z,59.00
2017-10-29T20:05:37.707Z,58.70
2017-10-29T20:08:05.238Z,58.70
2017-10-29T20:10:32.678Z,58.90
2017-10-29T20:13:00.164Z,59.90
2017-10-29T20:15:28.419Z,59.30
2017-10-29T20:17:55.968Z,59.30
2017-10-29T20:20:23.490Z,59.50
2017-10-29T20:22:51.769Z,59.50
2017-10-29T20:25:20.060Z,59.70
2017-10-29T20:27:47.555Z,59.70
2017-10-29T20:30:15.745Z,59.40
2017-10-29T20:32:43.214Z,59.30
2017-10-29T20:35:10.763Z,59.50
2017-10-29T20:37:38.217Z,59.10
2017-10-29T20:40:05.748Z,60.50
2017-10-29T20:42:33.210Z,59.90
2017-10-29T20:45:00.629Z,59.50
2017-10-29T20:47:28.131Z,60.00
2017-10-29T20:49:56.371Z,60.60
2017-10-29T20:52:23.825Z,60.60
2017-10-29T20:54:51.314Z,60.20
2017-10-29T20:57:18.776Z,60.30
2017-10-29T20:59:46.190Z,60.10
2017-10-29T21:02:13.715Z,59.50
2017-10-29T21:04:41.966Z,59.90
2017-10-29T21:07:09.472Z,59.80
2017-10-29T21:09:37.716Z,60.90
2017-10-29T21:12:05.986Z,60.00
2017-10-29T21:14:33.443Z,60.80
2017-10-29T21:17:00.921Z,59.90
2017-10-29T21:19:28.434Z,60.50
2017-10-29T21:21:55.948Z,60.50
2017-10-29T21:24:23.431Z,60.40
2017-10-29T21:26:50.850Z,60.40
2017-10-29T21:29:18.314Z,60.60
2017-10-29T21:31:45.814Z,60.20
2017-10-29T21:34:13.306Z,60.60
2017-10-29T21:36:40.808Z,60.80
2017-10-29T21:39:09.119Z,60.50
2017-10-29T21:41:37.402Z,60.70
2017-10-29T21:44:04.884Z,60.60
2017-10-29T21:46:32.412Z,60.60
2017-10-29T21:48:59.876Z,60.30
2017-10-29T21:51:27.493Z,60.60
2017-10-29T21:53:54.984Z,61.30
2017-10-29T21:56:22.499Z,60.50
2017-10-29T21:58:50.792Z,61.60
2017-10-29T22:01:18.669Z,61.60
2017-10-29T22:03:46.093Z,61.70
2017-10-29T22:06:13.563Z,61.00
2017-10-29T22:08:41.842Z,61.10
2017-10-29T22:11:09.434Z,61.10
2017-10-29T22:13:36.927Z,60.50
2017-10-29T22:16:04.394Z,60.60
2017-10-29T22:18:31.883Z,60.20
2017-10-29T22:21:00.843Z,60.00
2017-10-29T22:23:28.397Z,60.00
2017-10-29T22:25:55.840Z,60.50
2017-10-29T22:28:23.284Z,60.60
2017-10-29T22:30:51.582Z,60.40
2017-10-29T22:33:19.809Z,61.30
2017-10-29T22:35:47.287Z,60.50
2017-10-29T22:38:14.797Z,60.10
2017-10-29T22:40:42.250Z,59.90
2017-10-29T22:43:09.759Z,60.50
2017-10-29T22:45:37.226Z,60.30
2017-10-29T22:48:04.795Z,60.30
2017-10-29T22:50:32.218Z,60.40
2017-10-29T22:52:59.793Z,60.40
2017-10-29T22:55:27.960Z,60.40
2017-10-29T22:57:55.473Z,61.10
2017-10-29T23:00:24.452Z,60.40
2017-10-29T23:02:51.936Z,60.40
2017-10-29T23:05:19.430Z,59.90
2017-10-29T23:07:47.890Z,61.10
2017-10-29T23:10:15.432Z,60.30
2017-10-29T23:12:42.934Z,61.00
2017-10-29T23:15:11.192Z,61.10
2017-10-29T23:17:38.632Z,61.00
2017-10-29T23:20:06.087Z,61.50
2017-10-29T23:22:33.596Z,60.60
2017-10-29T23:25:01.097Z,60.40
2017-10-29T23:27:29.277Z,61.30
2017-10-29T23:29:56.762Z,61.20
2017-10-29T23:32:24.211Z,61.20
2017-10-29T23:34:51.719Z,60.30
2017-10-29T23:37:19.293Z,60.80
2017-10-29T23:39:47.528Z,60.60
2017-10-29T23:42:15.010Z,60.50
2017-10-29T23:44:42.506Z,61.50
2017-10-29T23:47:09.979Z,61.30
2017-10-29T23:49:38.003Z,60.60
2017-10-29T23:52:05.398Z,60.70
2017-10-29T23:54:33.622Z,60.80
2017-10-29T23:57:01.116Z,60.70
2017-10-29T23:59:28.598Z,61.50
